Spanish Fork, Utah
Current Conditions -  °F | °C
As of 1:50 PM on Wednesday 26 Nov 2014 (Local Time) from KPVU Reporting Station
Clear Clear  
Wind Chill: 52°   Ceiling: Unl
Heat Index: 52°   Visibility: 15mi
Dew Point: 30°   Wind: 5mph
Humidity: 44%   Direction: NA
Pressure: 30.38"   Gusts: NA
Location:  40.11°N, 111.65°W
Report Text: KPVU 262050Z VRB04KT 15SM SKC 11/M01 A3038
Loading
Personal Weather Stations






























Interactive Weather Map New forecast layout! Learn more

10-Day Weather Forecast

Advertisements
Track Severe Weather on mobile